首页
METAR-TAF:

METAR-TAF

机场 :

明尼阿波利斯-圣保罗国际机场

明尼阿波利斯, 明尼蘇達州, 美国

纬度: 44-52-59N, 经度: 093-13-44W, 海拔: 256米

当前天气观测

该预报发布于1小时和2分钟前的05:53 UTC
静风
温度 2°C
湿度 80%
气压 1005 hPa
能見度: 8.0公里
阴天层高于1000英尺
小雨, 轻雾

METAR: KMSP 190553Z 00000KT 5SM -RA BR OVC010 02/M01 A2969 RMK AO2 RAB33 SLP063 P0001 60001 T00171006 10022 20017 400281006 58002

时间: 00:55 (06:55 UTC)

预报

该预报发布于1小时和20分钟前的05:35 UTC
预报有效从19日的 06点(UTC)到 20日的 12点(UTC)
风速5节,风向东南
能見度: 8.0公里
阴天层高于1000英尺
小雨
短暂存在
从 19日的 06点(UTC)到 19日的 08点(UTC)
能見度: 3.2公里
阴天层高于800英尺
小雨
从 19日的 0800点(UTC)
风速6节,风向西
能見度: 10公里
多云层高于700英尺
从 19日的 1000点(UTC)
风速6节,风向西转西北
能見度: 10公里
多云层高于400英尺
从 19日的 1600点(UTC)
风速7节,风向西转西北
能見度: 10公里
多云层高于1200英尺
从 20日的 0400点(UTC)
风速4节,风向多变
能見度: 10公里
多云层高于2000英尺

TAF: KMSP 190535Z 1906/2012 13005KT 5SM -RA OVC010 TEMPO 1906/1908 2SM -RA OVC008 FM190800 28006KT P6SM BKN007 FM191000 29006KT P6SM BKN004 FM191600 29007KT P6SM BKN012 FM200400 VRB04KT P6SM BKN020

超过4000个机场的气象观测和天气预报(METAR&TAF报告)。

可查询的气象台以黄色和红色小点在地图上表示。

将鼠标移到小点上方,可查看气象台名称。

然后点击查看天气观测和预报。

如需切换地图:点击带黑十字的绿色按钮放大地图;点击带横线的绿色按钮缩小地图;或者点击绿色箭头查看邻近地区的地图。


METAR-TAF: